PWSweather.com
Personal Weather Stations
Station Observations
WISCHPK61
Green Bay Schmitt Park, Green Bay, WI 54311

Green Bay Schmitt ParkGreen Bay, WI 54311

Lat: 44.514277, Lon: -87.935067

Elevation: 735

Station Type: Acu Rite Pro Weather Center model 02032C

http://greenbayweathercam.com

High Low Average
Temperature 83.7°F28.7°C 60.3°F15.7°C 71.8°F22.1°C
Dew Point 83.4°F28.6°C 60.0°F15.6°C 71.6°F22.0°C
Winds Calm Calm Calm Calm Calm SCalm S
Wind Gusts -- -- --
Humidity 99% 99% 99%
Pressure 29.38 in994.9 mb 29.26 in990.9 mb -
Precipitation 0.00 in0.0 mm - -
Hour Temp Dew Point Humidity Winds Wind Gusts Pressure Precip Precip Rate Daily Precip Total
12:00 AM 65.3°F18.5°C 65.0°F18.3°C 99% Calm Calm -- 29.36 in994.2 mb - 0.00 in0.0 mm 0.00 in0.0 mm
01:00 AM 64.0°F17.8°C 63.7°F17.6°C 99% Calm Calm -- 29.37 in994.6 mb - 0.00 in0.0 mm 0.00 in0.0 mm
02:00 AM 63.5°F17.5°C 63.2°F17.3°C 99% Calm Calm -- 29.38 in994.9 mb - 0.00 in0.0 mm 0.00 in0.0 mm
03:00 AM 62.8°F17.1°C 62.5°F16.9°C 99% Calm Calm -- 29.36 in994.2 mb - 0.00 in0.0 mm 0.00 in0.0 mm
04:00 AM 62.1°F16.7°C 61.8°F16.6°C 99% Calm Calm -- 29.36 in994.2 mb - 0.00 in0.0 mm 0.00 in0.0 mm
05:00 AM 61.0°F16.1°C 60.7°F15.9°C 99% Calm Calm -- 29.36 in994.2 mb - 0.00 in0.0 mm 0.00 in0.0 mm
06:00 AM 60.3°F15.7°C 60.0°F15.6°C 99% Calm Calm -- 29.34 in993.6 mb - 0.00 in0.0 mm 0.00 in0.0 mm
07:00 AM 60.8°F16.0°C 60.5°F15.8°C 99% Calm Calm -- 29.35 in993.9 mb - 0.00 in0.0 mm 0.00 in0.0 mm
08:00 AM 64.8°F18.2°C 64.5°F18.1°C 99% Calm Calm -- 29.35 in993.9 mb - 0.00 in0.0 mm 0.00 in0.0 mm
09:00 AM 69.3°F20.7°C 69.0°F20.6°C 99% Calm Calm -- 29.36 in994.2 mb - 0.00 in0.0 mm 0.00 in0.0 mm
10:00 AM 74.8°F23.8°C 74.5°F23.6°C 99% Calm Calm -- 29.36 in994.2 mb - 0.00 in0.0 mm 0.00 in0.0 mm
11:00 AM 77.6°F25.3°C 77.3°F25.2°C 99% Calm Calm -- 29.35 in993.9 mb - 0.00 in0.0 mm 0.00 in0.0 mm
12:00 PM 80.5°F26.9°C 80.2°F26.8°C 99% Calm Calm -- 29.34 in993.6 mb - 0.00 in0.0 mm 0.00 in0.0 mm
01:00 PM 83.1°F28.4°C 82.8°F28.2°C 99% Calm Calm -- 29.33 in993.2 mb - 0.00 in0.0 mm 0.00 in0.0 mm
02:00 PM 82.8°F28.2°C 82.5°F28.1°C 99% Calm Calm -- 29.31 in992.6 mb - 0.00 in0.0 mm 0.00 in0.0 mm
03:00 PM 83.7°F28.7°C 83.4°F28.6°C 99% Calm Calm -- 29.30 in992.2 mb - 0.00 in0.0 mm 0.00 in0.0 mm
04:00 PM 82.8°F28.2°C 82.5°F28.1°C 99% Calm Calm -- 29.29 in991.9 mb - 0.00 in0.0 mm 0.00 in0.0 mm
05:00 PM 80.2°F26.8°C 79.9°F26.6°C 99% Calm Calm -- 29.27 in991.2 mb - 0.00 in0.0 mm 0.00 in0.0 mm
06:00 PM 79.2°F26.2°C 78.9°F26.1°C 99% Calm Calm -- 29.26 in990.9 mb - 0.00 in0.0 mm 0.00 in0.0 mm
07:00 PM 78.1°F25.6°C 77.8°F25.4°C 99% Calm Calm -- 29.25 in990.5 mb - 0.00 in0.0 mm 0.00 in0.0 mm
08:00 PM 75.0°F23.9°C 74.7°F23.7°C 99% Calm Calm -- 29.24 in990.2 mb - 0.00 in0.0 mm 0.00 in0.0 mm
09:00 PM 72.1°F22.3°C 71.8°F22.1°C 99% Calm Calm -- 29.24 in990.2 mb - 0.00 in0.0 mm 0.00 in0.0 mm
10:00 PM 70.2°F21.2°C 69.9°F21.1°C 99% Calm Calm -- 29.25 in990.5 mb - 0.00 in0.0 mm 0.00 in0.0 mm
11:00 PM 68.5°F20.3°C 68.2°F20.1°C 99% Calm Calm -- 29.25 in990.5 mb - 0.00 in0.0 mm 0.00 in0.0 mm